sensor_id;sensor_type;location;lat;lon;timestamp;P1;durP1;ratioP1;P2;durP2;ratioP2
14603;SDS011;7388;51.078;13.740;2022-08-11T00:01:08;5.07;;;3.90;;
14603;SDS011;7388;51.078;13.740;2022-08-11T00:03:41;10.07;;;3.30;;
14603;SDS011;7388;51.078;13.740;2022-08-11T00:06:10;4.60;;;4.07;;
14603;SDS011;7388;51.078;13.740;2022-08-11T00:08:38;5.27;;;3.03;;
14603;SDS011;7388;51.078;13.740;2022-08-11T00:11:06;4.20;;;3.27;;
14603;SDS011;7388;51.078;13.740;2022-08-11T00:13:34;5.20;;;3.67;;
14603;SDS011;7388;51.078;13.740;2022-08-11T00:16:27;4.83;;;3.83;;
14603;SDS011;7388;51.078;13.740;2022-08-11T00:18:54;7.70;;;3.70;;
14603;SDS011;7388;51.078;13.740;2022-08-11T00:21:22;4.80;;;3.30;;
14603;SDS011;7388;51.078;13.740;2022-08-11T00:23:57;5.53;;;3.37;;
14603;SDS011;7388;51.078;13.740;2022-08-11T00:26:26;5.10;;;3.80;;
14603;SDS011;7388;51.078;13.740;2022-08-11T00:28:55;3.40;;;3.03;;
14603;SDS011;7388;51.078;13.740;2022-08-11T00:31:28;4.40;;;3.67;;
14603;SDS011;7388;51.078;13.740;2022-08-11T00:33:56;4.47;;;3.70;;
14603;SDS011;7388;51.078;13.740;2022-08-11T00:36:28;7.00;;;3.73;;
14603;SDS011;7388;51.078;13.740;2022-08-11T00:39:15;6.13;;;3.80;;
14603;SDS011;7388;51.078;13.740;2022-08-11T00:41:47;4.83;;;4.00;;
14603;SDS011;7388;51.078;13.740;2022-08-11T01:02:09;5.00;;;4.50;;
14603;SDS011;7388;51.078;13.740;2022-08-11T01:10:51;6.00;;;3.80;;
14603;SDS011;7388;51.078;13.740;2022-08-11T01:14:06;5.63;;;3.37;;
14603;SDS011;7388;51.078;13.740;2022-08-11T01:20:20;6.57;;;4.43;;
14603;SDS011;7388;51.078;13.740;2022-08-11T01:50:39;4.70;;;3.37;;
14603;SDS011;7388;51.078;13.740;2022-08-11T01:56:25;4.13;;;3.58;;
14603;SDS011;7388;51.078;13.740;2022-08-11T02:07:17;4.50;;;3.30;;
14603;SDS011;7388;51.078;13.740;2022-08-11T02:13:05;7.83;;;3.03;;
14603;SDS011;7388;51.078;13.740;2022-08-11T02:15:53;4.77;;;3.53;;
14603;SDS011;7388;51.078;13.740;2022-08-11T02:18:32;6.03;;;4.10;;
14603;SDS011;7388;51.078;13.740;2022-08-11T02:21:21;5.73;;;3.77;;
14603;SDS011;7388;51.078;13.740;2022-08-11T02:24:27;3.95;;;3.55;;
14603;SDS011;7388;51.078;13.740;2022-08-11T02:27:06;5.10;;;4.00;;
14603;SDS011;7388;51.078;13.740;2022-08-11T02:29:48;4.63;;;3.85;;
14603;SDS011;7388;51.078;13.740;2022-08-11T02:32:20;5.93;;;3.57;;
14603;SDS011;7388;51.078;13.740;2022-08-11T02:37:49;4.28;;;3.63;;
14603;SDS011;7388;51.078;13.740;2022-08-11T02:40:26;3.58;;;3.22;;
14603;SDS011;7388;51.078;13.740;2022-08-11T02:43:02;4.30;;;3.60;;
14603;SDS011;7388;51.078;13.740;2022-08-11T02:45:33;4.70;;;4.00;;
14603;SDS011;7388;51.078;13.740;2022-08-11T02:48:44;4.68;;;3.40;;
14603;SDS011;7388;51.078;13.740;2022-08-11T02:54:41;6.80;;;4.20;;
14603;SDS011;7388;51.078;13.740;2022-08-11T03:00:02;6.10;;;4.70;;
14603;SDS011;7388;51.078;13.740;2022-08-11T03:08:22;5.30;;;4.13;;
14603;SDS011;7388;51.078;13.740;2022-08-11T03:13:44;5.25;;;4.00;;
14603;SDS011;7388;51.078;13.740;2022-08-11T03:16:50;5.63;;;4.13;;
14603;SDS011;7388;51.078;13.740;2022-08-11T03:30:24;5.85;;;4.30;;
14603;SDS011;7388;51.078;13.740;2022-08-11T03:33:04;4.60;;;4.00;;
14603;SDS011;7388;51.078;13.740;2022-08-11T03:35:56;4.85;;;3.95;;
14603;SDS011;7388;51.078;13.740;2022-08-11T03:38:30;4.97;;;4.25;;
14603;SDS011;7388;51.078;13.740;2022-08-11T04:00:46;7.05;;;4.55;;
14603;SDS011;7388;51.078;13.740;2022-08-11T04:04:23;4.88;;;4.25;;
14603;SDS011;7388;51.078;13.740;2022-08-11T04:48:18;7.03;;;4.75;;
14603;SDS011;7388;51.078;13.740;2022-08-11T05:00:55;4.78;;;4.35;;
14603;SDS011;7388;51.078;13.740;2022-08-11T05:11:51;5.65;;;5.15;;
14603;SDS011;7388;51.078;13.740;2022-08-11T05:14:26;7.57;;;3.67;;
14603;SDS011;7388;51.078;13.740;2022-08-11T05:20:53;13.13;;;3.40;;
14603;SDS011;7388;51.078;13.740;2022-08-11T05:23:40;8.52;;;4.03;;
14603;SDS011;7388;51.078;13.740;2022-08-11T05:26:29;4.80;;;4.40;;
14603;SDS011;7388;51.078;13.740;2022-08-11T05:29:27;5.87;;;4.43;;
14603;SDS011;7388;51.078;13.740;2022-08-11T05:32:24;5.00;;;3.70;;
14603;SDS011;7388;51.078;13.740;2022-08-11T05:35:16;6.70;;;4.87;;
14603;SDS011;7388;51.078;13.740;2022-08-11T05:37:55;6.63;;;3.70;;
14603;SDS011;7388;51.078;13.740;2022-08-11T05:40:47;5.78;;;4.35;;
14603;SDS011;7388;51.078;13.740;2022-08-11T05:43:33;7.30;;;4.23;;
14603;SDS011;7388;51.078;13.740;2022-08-11T05:46:24;6.47;;;5.07;;
14603;SDS011;7388;51.078;13.740;2022-08-11T05:49:11;6.30;;;4.30;;
14603;SDS011;7388;51.078;13.740;2022-08-11T05:51:57;6.83;;;4.33;;
14603;SDS011;7388;51.078;13.740;2022-08-11T05:54:42;8.10;;;4.47;;
14603;SDS011;7388;51.078;13.740;2022-08-11T05:57:31;4.10;;;3.50;;
14603;SDS011;7388;51.078;13.740;2022-08-11T06:00:05;5.73;;;4.30;;
14603;SDS011;7388;51.078;13.740;2022-08-11T06:02:41;6.80;;;3.97;;
14603;SDS011;7388;51.078;13.740;2022-08-11T06:05:10;6.60;;;4.00;;
14603;SDS011;7388;51.078;13.740;2022-08-11T06:07:37;7.63;;;3.90;;
14603;SDS011;7388;51.078;13.740;2022-08-11T06:10:03;5.90;;;4.57;;
14603;SDS011;7388;51.078;13.740;2022-08-11T06:12:31;5.17;;;3.97;;
14603;SDS011;7388;51.078;13.740;2022-08-11T06:15:05;4.70;;;4.20;;
14603;SDS011;7388;51.078;13.740;2022-08-11T06:17:34;6.30;;;5.50;;
14603;SDS011;7388;51.078;13.740;2022-08-11T06:20:09;5.97;;;5.10;;
14603;SDS011;7388;51.078;13.740;2022-08-11T06:22:44;4.80;;;4.00;;
14603;SDS011;7388;51.078;13.740;2022-08-11T06:25:12;5.47;;;4.30;;
14603;SDS011;7388;51.078;13.740;2022-08-11T06:27:40;4.00;;;3.40;;
14603;SDS011;7388;51.078;13.740;2022-08-11T06:30:09;4.37;;;3.33;;
14603;SDS011;7388;51.078;13.740;2022-08-11T06:32:44;6.13;;;4.23;;
14603;SDS011;7388;51.078;13.740;2022-08-11T06:38:09;6.20;;;4.47;;
14603;SDS011;7388;51.078;13.740;2022-08-11T06:43:51;4.33;;;3.40;;
14603;SDS011;7388;51.078;13.740;2022-08-11T06:46:30;6.20;;;4.60;;
14603;SDS011;7388;51.078;13.740;2022-08-11T06:49:02;4.23;;;3.50;;
14603;SDS011;7388;51.078;13.740;2022-08-11T06:51:29;5.00;;;3.67;;
14603;SDS011;7388;51.078;13.740;2022-08-11T06:53:59;5.40;;;4.70;;
14603;SDS011;7388;51.078;13.740;2022-08-11T06:56:30;8.30;;;3.83;;
14603;SDS011;7388;51.078;13.740;2022-08-11T06:59:17;4.23;;;3.50;;
14603;SDS011;7388;51.078;13.740;2022-08-11T07:02:14;4.43;;;3.23;;
14603;SDS011;7388;51.078;13.740;2022-08-11T07:13:47;10.83;;;4.10;;
14603;SDS011;7388;51.078;13.740;2022-08-11T07:16:54;4.70;;;3.10;;
14603;SDS011;7388;51.078;13.740;2022-08-11T07:19:27;4.80;;;3.70;;
14603;SDS011;7388;51.078;13.740;2022-08-11T07:22:12;6.83;;;4.40;;
14603;SDS011;7388;51.078;13.740;2022-08-11T07:25:01;6.90;;;3.50;;
14603;SDS011;7388;51.078;13.740;2022-08-11T07:30:48;5.00;;;3.30;;
14603;SDS011;7388;51.078;13.740;2022-08-11T07:33:24;4.27;;;3.87;;
14603;SDS011;7388;51.078;13.740;2022-08-11T07:36:17;5.60;;;3.67;;
14603;SDS011;7388;51.078;13.740;2022-08-11T07:38:48;5.90;;;3.80;;
14603;SDS011;7388;51.078;13.740;2022-08-11T07:41:17;3.50;;;2.93;;
14603;SDS011;7388;51.078;13.740;2022-08-11T07:43:47;5.20;;;3.20;;
14603;SDS011;7388;51.078;13.740;2022-08-11T07:46:16;6.10;;;3.00;;
14603;SDS011;7388;51.078;13.740;2022-08-11T07:49:02;6.20;;;3.70;;
14603;SDS011;7388;51.078;13.740;2022-08-11T07:51:50;4.93;;;3.60;;
14603;SDS011;7388;51.078;13.740;2022-08-11T07:54:36;9.07;;;3.23;;
14603;SDS011;7388;51.078;13.740;2022-08-11T07:57:03;3.37;;;2.70;;
14603;SDS011;7388;51.078;13.740;2022-08-11T07:59:51;4.07;;;3.07;;
14603;SDS011;7388;51.078;13.740;2022-08-11T08:02:36;4.20;;;3.00;;
14603;SDS011;7388;51.078;13.740;2022-08-11T08:05:21;5.23;;;2.90;;
14603;SDS011;7388;51.078;13.740;2022-08-11T08:08:06;4.67;;;3.13;;
14603;SDS011;7388;51.078;13.740;2022-08-11T08:10:52;5.23;;;2.93;;
14603;SDS011;7388;51.078;13.740;2022-08-11T08:13:40;4.70;;;3.33;;
14603;SDS011;7388;51.078;13.740;2022-08-11T08:16:26;4.40;;;3.20;;
14603;SDS011;7388;51.078;13.740;2022-08-11T08:19:14;3.30;;;2.33;;
14603;SDS011;7388;51.078;13.740;2022-08-11T08:21:43;5.77;;;3.03;;
14603;SDS011;7388;51.078;13.740;2022-08-11T08:24:09;3.40;;;2.63;;
14603;SDS011;7388;51.078;13.740;2022-08-11T08:26:36;3.63;;;2.40;;
14603;SDS011;7388;51.078;13.740;2022-08-11T08:29:21;4.23;;;2.93;;
14603;SDS011;7388;51.078;13.740;2022-08-11T08:32:06;2.87;;;2.37;;
14603;SDS011;7388;51.078;13.740;2022-08-11T08:34:33;4.40;;;2.20;;
14603;SDS011;7388;51.078;13.740;2022-08-11T08:37:01;3.93;;;2.90;;
14603;SDS011;7388;51.078;13.740;2022-08-11T08:39:27;4.10;;;2.07;;
14603;SDS011;7388;51.078;13.740;2022-08-11T08:41:57;3.23;;;2.60;;
14603;SDS011;7388;51.078;13.740;2022-08-11T08:44:26;3.53;;;2.57;;
14603;SDS011;7388;51.078;13.740;2022-08-11T08:46:54;6.20;;;2.30;;
14603;SDS011;7388;51.078;13.740;2022-08-11T08:49:22;5.83;;;2.47;;
14603;SDS011;7388;51.078;13.740;2022-08-11T08:51:54;5.53;;;2.10;;
14603;SDS011;7388;51.078;13.740;2022-08-11T08:54:35;3.50;;;2.60;;
14603;SDS011;7388;51.078;13.740;2022-08-11T08:57:03;4.30;;;2.80;;
14603;SDS011;7388;51.078;13.740;2022-08-11T08:59:31;8.50;;;2.40;;
14603;SDS011;7388;51.078;13.740;2022-08-11T09:02:02;4.43;;;1.80;;
14603;SDS011;7388;51.078;13.740;2022-08-11T09:04:29;5.33;;;2.40;;
14603;SDS011;7388;51.078;13.740;2022-08-11T09:07:06;4.50;;;2.30;;
14603;SDS011;7388;51.078;13.740;2022-08-11T09:09:36;2.80;;;1.70;;
14603;SDS011;7388;51.078;13.740;2022-08-11T09:12:11;3.17;;;2.23;;
14603;SDS011;7388;51.078;13.740;2022-08-11T09:14:38;3.70;;;2.07;;
14603;SDS011;7388;51.078;13.740;2022-08-11T09:17:27;6.77;;;2.47;;
14603;SDS011;7388;51.078;13.740;2022-08-11T09:20:18;4.00;;;1.97;;
14603;SDS011;7388;51.078;13.740;2022-08-11T09:22:57;4.47;;;2.30;;
14603;SDS011;7388;51.078;13.740;2022-08-11T09:25:44;3.73;;;2.30;;
14603;SDS011;7388;51.078;13.740;2022-08-11T09:28:29;4.03;;;2.57;;
14603;SDS011;7388;51.078;13.740;2022-08-11T09:30:55;4.03;;;2.73;;
14603;SDS011;7388;51.078;13.740;2022-08-11T09:33:25;4.77;;;2.40;;
14603;SDS011;7388;51.078;13.740;2022-08-11T09:35:53;3.03;;;2.00;;
14603;SDS011;7388;51.078;13.740;2022-08-11T09:38:21;2.83;;;1.90;;
14603;SDS011;7388;51.078;13.740;2022-08-11T09:41:08;3.03;;;2.00;;
14603;SDS011;7388;51.078;13.740;2022-08-11T09:43:38;2.70;;;1.80;;
14603;SDS011;7388;51.078;13.740;2022-08-11T09:46:26;5.60;;;2.10;;
14603;SDS011;7388;51.078;13.740;2022-08-11T09:48:54;2.60;;;1.90;;
14603;SDS011;7388;51.078;13.740;2022-08-11T09:51:23;2.20;;;1.60;;
14603;SDS011;7388;51.078;13.740;2022-08-11T09:53:50;3.07;;;2.10;;
14603;SDS011;7388;51.078;13.740;2022-08-11T09:56:20;3.10;;;2.53;;
14603;SDS011;7388;51.078;13.740;2022-08-11T09:59:06;2.90;;;1.97;;
14603;SDS011;7388;51.078;13.740;2022-08-11T10:01:33;3.50;;;1.87;;
14603;SDS011;7388;51.078;13.740;2022-08-11T10:04:15;4.30;;;1.90;;
14603;SDS011;7388;51.078;13.740;2022-08-11T10:06:43;4.20;;;1.80;;
14603;SDS011;7388;51.078;13.740;2022-08-11T10:09:27;6.03;;;2.27;;
14603;SDS011;7388;51.078;13.740;2022-08-11T10:12:00;4.77;;;3.30;;
14603;SDS011;7388;51.078;13.740;2022-08-11T10:14:28;3.97;;;2.37;;
14603;SDS011;7388;51.078;13.740;2022-08-11T10:17:15;3.53;;;2.43;;
14603;SDS011;7388;51.078;13.740;2022-08-11T10:19:44;3.40;;;2.27;;
14603;SDS011;7388;51.078;13.740;2022-08-11T10:22:12;3.23;;;1.97;;
14603;SDS011;7388;51.078;13.740;2022-08-11T10:24:58;6.67;;;2.37;;
14603;SDS011;7388;51.078;13.740;2022-08-11T10:27:44;3.73;;;2.30;;
14603;SDS011;7388;51.078;13.740;2022-08-11T10:30:12;4.87;;;1.93;;
14603;SDS011;7388;51.078;13.740;2022-08-11T10:32:57;3.53;;;2.20;;
14603;SDS011;7388;51.078;13.740;2022-08-11T10:35:42;2.63;;;1.80;;
14603;SDS011;7388;51.078;13.740;2022-08-11T10:38:09;4.20;;;2.03;;
14603;SDS011;7388;51.078;13.740;2022-08-11T10:40:39;2.37;;;1.63;;
14603;SDS011;7388;51.078;13.740;2022-08-11T10:43:09;3.10;;;2.00;;
14603;SDS011;7388;51.078;13.740;2022-08-11T10:45:43;4.37;;;2.80;;
14603;SDS011;7388;51.078;13.740;2022-08-11T10:48:29;3.77;;;1.53;;
14603;SDS011;7388;51.078;13.740;2022-08-11T10:51:00;2.60;;;1.60;;
14603;SDS011;7388;51.078;13.740;2022-08-11T10:53:42;2.87;;;1.73;;
14603;SDS011;7388;51.078;13.740;2022-08-11T10:56:28;7.20;;;2.07;;
14603;SDS011;7388;51.078;13.740;2022-08-11T10:59:15;2.97;;;2.10;;
14603;SDS011;7388;51.078;13.740;2022-08-11T11:01:42;4.17;;;2.10;;
14603;SDS011;7388;51.078;13.740;2022-08-11T11:04:13;3.53;;;2.03;;
14603;SDS011;7388;51.078;13.740;2022-08-11T11:09:28;2.93;;;1.67;;
14603;SDS011;7388;51.078;13.740;2022-08-11T11:12:10;4.57;;;1.70;;
14603;SDS011;7388;51.078;13.740;2022-08-11T11:15:02;3.17;;;1.70;;
14603;SDS011;7388;51.078;13.740;2022-08-11T11:17:52;3.23;;;1.80;;
14603;SDS011;7388;51.078;13.740;2022-08-11T11:20:41;2.23;;;1.50;;
14603;SDS011;7388;51.078;13.740;2022-08-11T11:23:26;2.17;;;1.43;;
14603;SDS011;7388;51.078;13.740;2022-08-11T11:37:23;2.00;;;1.27;;
14603;SDS011;7388;51.078;13.740;2022-08-11T11:39:50;3.17;;;1.67;;
14603;SDS011;7388;51.078;13.740;2022-08-11T11:42:18;2.43;;;1.30;;
14603;SDS011;7388;51.078;13.740;2022-08-11T11:44:45;3.30;;;1.90;;
14603;SDS011;7388;51.078;13.740;2022-08-11T11:47:13;2.33;;;1.20;;
14603;SDS011;7388;51.078;13.740;2022-08-11T11:49:44;2.37;;;1.17;;
14603;SDS011;7388;51.078;13.740;2022-08-11T11:52:13;2.43;;;1.33;;
14603;SDS011;7388;51.078;13.740;2022-08-11T11:54:47;3.50;;;1.70;;
14603;SDS011;7388;51.078;13.740;2022-08-11T11:57:16;2.30;;;1.37;;
14603;SDS011;7388;51.078;13.740;2022-08-11T12:00:03;3.70;;;1.30;;
14603;SDS011;7388;51.078;13.740;2022-08-11T12:02:49;2.70;;;1.43;;
14603;SDS011;7388;51.078;13.740;2022-08-11T12:05:16;2.40;;;1.27;;
14603;SDS011;7388;51.078;13.740;2022-08-11T12:07:43;2.80;;;1.57;;
14603;SDS011;7388;51.078;13.740;2022-08-11T12:10:28;4.50;;;2.00;;
14603;SDS011;7388;51.078;13.740;2022-08-11T12:12:55;3.33;;;1.77;;
14603;SDS011;7388;51.078;13.740;2022-08-11T12:15:43;2.13;;;1.17;;
14603;SDS011;7388;51.078;13.740;2022-08-11T12:18:11;3.10;;;1.13;;
14603;SDS011;7388;51.078;13.740;2022-08-11T12:20:37;2.90;;;1.40;;
14603;SDS011;7388;51.078;13.740;2022-08-11T12:23:03;2.10;;;0.93;;
14603;SDS011;7388;51.078;13.740;2022-08-11T12:25:49;2.60;;;1.13;;
14603;SDS011;7388;51.078;13.740;2022-08-11T12:28:33;2.60;;;1.20;;
14603;SDS011;7388;51.078;13.740;2022-08-11T12:31:00;2.70;;;1.40;;
14603;SDS011;7388;51.078;13.740;2022-08-11T12:33:27;2.63;;;1.27;;
14603;SDS011;7388;51.078;13.740;2022-08-11T12:35:57;4.73;;;1.20;;
14603;SDS011;7388;51.078;13.740;2022-08-11T12:38:24;2.13;;;1.37;;
14603;SDS011;7388;51.078;13.740;2022-08-11T12:40:51;1.90;;;1.07;;
14603;SDS011;7388;51.078;13.740;2022-08-11T12:43:36;2.10;;;1.00;;
14603;SDS011;7388;51.078;13.740;2022-08-11T12:46:28;3.00;;;1.70;;
14603;SDS011;7388;51.078;13.740;2022-08-11T12:48:59;2.83;;;1.30;;
14603;SDS011;7388;51.078;13.740;2022-08-11T12:51:51;2.23;;;1.10;;
14603;SDS011;7388;51.078;13.740;2022-08-11T13:00:28;1.93;;;0.90;;
14603;SDS011;7388;51.078;13.740;2022-08-11T13:03:14;2.27;;;1.33;;
14603;SDS011;7388;51.078;13.740;2022-08-11T13:06:03;2.40;;;1.27;;
14603;SDS011;7388;51.078;13.740;2022-08-11T13:08:30;1.97;;;1.00;;
14603;SDS011;7388;51.078;13.740;2022-08-11T13:10:59;2.73;;;1.10;;
14603;SDS011;7388;51.078;13.740;2022-08-11T13:13:45;2.60;;;1.40;;
14603;SDS011;7388;51.078;13.740;2022-08-11T13:16:13;3.97;;;1.50;;
14603;SDS011;7388;51.078;13.740;2022-08-11T13:18:40;2.30;;;1.43;;
14603;SDS011;7388;51.078;13.740;2022-08-11T13:21:08;3.73;;;1.00;;
14603;SDS011;7388;51.078;13.740;2022-08-11T13:23:38;2.67;;;1.27;;
14603;SDS011;7388;51.078;13.740;2022-08-11T13:26:05;2.50;;;1.13;;
14603;SDS011;7388;51.078;13.740;2022-08-11T13:28:33;2.20;;;1.03;;
14603;SDS011;7388;51.078;13.740;2022-08-11T13:31:03;2.20;;;1.20;;
14603;SDS011;7388;51.078;13.740;2022-08-11T13:33:40;2.37;;;1.30;;
14603;SDS011;7388;51.078;13.740;2022-08-11T13:36:09;3.10;;;1.60;;
14603;SDS011;7388;51.078;13.740;2022-08-11T13:38:36;2.60;;;1.10;;
14603;SDS011;7388;51.078;13.740;2022-08-11T13:41:05;3.20;;;1.70;;
14603;SDS011;7388;51.078;13.740;2022-08-11T13:43:52;4.13;;;2.53;;
14603;SDS011;7388;51.078;13.740;2022-08-11T13:46:21;3.20;;;1.67;;
14603;SDS011;7388;51.078;13.740;2022-08-11T13:48:49;4.77;;;2.23;;
14603;SDS011;7388;51.078;13.740;2022-08-11T13:51:17;2.50;;;1.23;;
14603;SDS011;7388;51.078;13.740;2022-08-11T13:56:34;2.97;;;1.57;;
14603;SDS011;7388;51.078;13.740;2022-08-11T13:59:04;2.50;;;1.50;;
14603;SDS011;7388;51.078;13.740;2022-08-11T14:01:35;3.23;;;2.07;;
14603;SDS011;7388;51.078;13.740;2022-08-11T14:04:19;2.80;;;1.53;;
14603;SDS011;7388;51.078;13.740;2022-08-11T14:06:52;3.43;;;1.73;;
14603;SDS011;7388;51.078;13.740;2022-08-11T14:09:24;4.73;;;1.70;;
14603;SDS011;7388;51.078;13.740;2022-08-11T14:11:57;2.40;;;1.20;;
14603;SDS011;7388;51.078;13.740;2022-08-11T14:14:48;2.17;;;1.17;;
14603;SDS011;7388;51.078;13.740;2022-08-11T14:17:28;2.60;;;1.63;;
14603;SDS011;7388;51.078;13.740;2022-08-11T14:19:57;2.73;;;1.50;;
14603;SDS011;7388;51.078;13.740;2022-08-11T14:22:27;3.13;;;1.43;;
14603;SDS011;7388;51.078;13.740;2022-08-11T14:24:53;2.07;;;1.20;;
14603;SDS011;7388;51.078;13.740;2022-08-11T14:27:21;3.00;;;1.63;;
14603;SDS011;7388;51.078;13.740;2022-08-11T14:29:55;2.40;;;1.20;;
14603;SDS011;7388;51.078;13.740;2022-08-11T14:32:22;3.20;;;1.57;;
14603;SDS011;7388;51.078;13.740;2022-08-11T14:34:49;2.63;;;1.50;;
14603;SDS011;7388;51.078;13.740;2022-08-11T14:37:19;2.20;;;1.20;;
14603;SDS011;7388;51.078;13.740;2022-08-11T14:39:52;3.20;;;2.03;;
14603;SDS011;7388;51.078;13.740;2022-08-11T14:42:20;2.20;;;1.30;;
14603;SDS011;7388;51.078;13.740;2022-08-11T14:45:08;3.93;;;1.40;;
14603;SDS011;7388;51.078;13.740;2022-08-11T14:48:01;2.93;;;1.00;;
14603;SDS011;7388;51.078;13.740;2022-08-11T14:50:30;2.50;;;1.00;;
14603;SDS011;7388;51.078;13.740;2022-08-11T14:53:01;2.50;;;1.43;;
14603;SDS011;7388;51.078;13.740;2022-08-11T14:55:34;2.50;;;1.33;;
14603;SDS011;7388;51.078;13.740;2022-08-11T14:58:20;2.30;;;1.30;;
14603;SDS011;7388;51.078;13.740;2022-08-11T15:00:53;1.90;;;1.10;;
14603;SDS011;7388;51.078;13.740;2022-08-11T15:03:21;3.53;;;1.63;;
14603;SDS011;7388;51.078;13.740;2022-08-11T15:05:53;4.93;;;1.47;;
14603;SDS011;7388;51.078;13.740;2022-08-11T15:08:29;2.37;;;1.17;;
14603;SDS011;7388;51.078;13.740;2022-08-11T15:11:17;2.43;;;1.60;;
14603;SDS011;7388;51.078;13.740;2022-08-11T15:14:04;3.20;;;2.20;;
14603;SDS011;7388;51.078;13.740;2022-08-11T15:16:32;2.63;;;1.93;;
14603;SDS011;7388;51.078;13.740;2022-08-11T15:19:19;2.17;;;1.50;;
14603;SDS011;7388;51.078;13.740;2022-08-11T15:21:45;2.83;;;1.37;;
14603;SDS011;7388;51.078;13.740;2022-08-11T15:24:31;2.83;;;1.40;;
14603;SDS011;7388;51.078;13.740;2022-08-11T15:26:59;2.20;;;1.23;;
14603;SDS011;7388;51.078;13.740;2022-08-11T15:29:46;3.20;;;1.53;;
14603;SDS011;7388;51.078;13.740;2022-08-11T15:32:33;2.97;;;1.60;;
14603;SDS011;7388;51.078;13.740;2022-08-11T15:35:21;6.57;;;1.60;;
14603;SDS011;7388;51.078;13.740;2022-08-11T15:38:07;2.30;;;1.00;;
14603;SDS011;7388;51.078;13.740;2022-08-11T15:40:36;2.97;;;1.50;;
14603;SDS011;7388;51.078;13.740;2022-08-11T15:43:31;6.33;;;4.90;;
14603;SDS011;7388;51.078;13.740;2022-08-11T15:46:30;4.00;;;2.10;;
14603;SDS011;7388;51.078;13.740;2022-08-11T15:49:27;3.33;;;2.03;;
14603;SDS011;7388;51.078;13.740;2022-08-11T15:51:56;2.93;;;1.77;;
14603;SDS011;7388;51.078;13.740;2022-08-11T15:54:29;6.13;;;1.50;;
14603;SDS011;7388;51.078;13.740;2022-08-11T15:56:57;3.07;;;1.37;;
14603;SDS011;7388;51.078;13.740;2022-08-11T15:59:25;2.40;;;1.50;;
14603;SDS011;7388;51.078;13.740;2022-08-11T16:02:14;2.30;;;1.33;;
14603;SDS011;7388;51.078;13.740;2022-08-11T16:04:41;3.20;;;2.00;;
14603;SDS011;7388;51.078;13.740;2022-08-11T16:07:16;3.20;;;1.50;;
14603;SDS011;7388;51.078;13.740;2022-08-11T16:09:52;2.37;;;1.37;;
14603;SDS011;7388;51.078;13.740;2022-08-11T16:12:34;3.50;;;2.10;;
14603;SDS011;7388;51.078;13.740;2022-08-11T16:15:27;4.37;;;1.87;;
14603;SDS011;7388;51.078;13.740;2022-08-11T16:18:14;3.33;;;1.57;;
14603;SDS011;7388;51.078;13.740;2022-08-11T16:20:43;2.90;;;1.53;;
14603;SDS011;7388;51.078;13.740;2022-08-11T16:23:10;3.10;;;1.80;;
14603;SDS011;7388;51.078;13.740;2022-08-11T16:25:40;4.60;;;1.73;;
14603;SDS011;7388;51.078;13.740;2022-08-11T16:28:07;2.50;;;1.60;;
14603;SDS011;7388;51.078;13.740;2022-08-11T16:30:35;5.63;;;1.53;;
14603;SDS011;7388;51.078;13.740;2022-08-11T16:33:04;2.30;;;1.50;;
14603;SDS011;7388;51.078;13.740;2022-08-11T16:35:32;2.53;;;1.20;;
14603;SDS011;7388;51.078;13.740;2022-08-11T16:38:18;6.17;;;2.53;;
14603;SDS011;7388;51.078;13.740;2022-08-11T16:41:03;3.03;;;1.40;;
14603;SDS011;7388;51.078;13.740;2022-08-11T16:43:33;3.70;;;1.80;;
14603;SDS011;7388;51.078;13.740;2022-08-11T16:46:22;2.93;;;2.10;;
14603;SDS011;7388;51.078;13.740;2022-08-11T16:49:09;2.60;;;1.63;;
14603;SDS011;7388;51.078;13.740;2022-08-11T16:51:40;3.33;;;1.73;;
14603;SDS011;7388;51.078;13.740;2022-08-11T16:54:06;2.20;;;1.63;;
14603;SDS011;7388;51.078;13.740;2022-08-11T16:56:36;3.77;;;1.83;;
14603;SDS011;7388;51.078;13.740;2022-08-11T16:59:08;2.80;;;1.87;;
14603;SDS011;7388;51.078;13.740;2022-08-11T17:01:50;2.83;;;1.60;;
14603;SDS011;7388;51.078;13.740;2022-08-11T17:07:27;2.67;;;1.70;;
14603;SDS011;7388;51.078;13.740;2022-08-11T17:10:20;2.73;;;1.60;;
14603;SDS011;7388;51.078;13.740;2022-08-11T17:13:09;3.53;;;1.60;;
14603;SDS011;7388;51.078;13.740;2022-08-11T17:15:49;2.70;;;1.37;;
14603;SDS011;7388;51.078;13.740;2022-08-11T17:18:43;2.53;;;1.33;;
14603;SDS011;7388;51.078;13.740;2022-08-11T17:21:31;2.83;;;1.37;;
14603;SDS011;7388;51.078;13.740;2022-08-11T17:24:21;2.67;;;1.90;;
14603;SDS011;7388;51.078;13.740;2022-08-11T17:26:48;3.03;;;1.90;;
14603;SDS011;7388;51.078;13.740;2022-08-11T17:29:23;2.33;;;1.10;;
14603;SDS011;7388;51.078;13.740;2022-08-11T17:31:56;4.10;;;1.70;;
14603;SDS011;7388;51.078;13.740;2022-08-11T17:34:44;4.00;;;1.43;;
14603;SDS011;7388;51.078;13.740;2022-08-11T17:37:31;3.00;;;1.50;;
14603;SDS011;7388;51.078;13.740;2022-08-11T17:39:59;3.30;;;1.57;;
14603;SDS011;7388;51.078;13.740;2022-08-11T17:42:28;2.37;;;1.03;;
14603;SDS011;7388;51.078;13.740;2022-08-11T17:45:19;3.60;;;1.67;;
14603;SDS011;7388;51.078;13.740;2022-08-11T17:48:05;2.30;;;1.10;;
14603;SDS011;7388;51.078;13.740;2022-08-11T17:50:59;3.30;;;2.13;;
14603;SDS011;7388;51.078;13.740;2022-08-11T17:53:32;2.70;;;1.40;;
14603;SDS011;7388;51.078;13.740;2022-08-11T17:56:38;2.60;;;1.47;;
14603;SDS011;7388;51.078;13.740;2022-08-11T17:59:23;2.40;;;1.30;;
14603;SDS011;7388;51.078;13.740;2022-08-11T18:02:07;6.77;;;1.30;;
14603;SDS011;7388;51.078;13.740;2022-08-11T18:05:10;3.03;;;1.60;;
14603;SDS011;7388;51.078;13.740;2022-08-11T18:07:36;2.27;;;1.30;;
14603;SDS011;7388;51.078;13.740;2022-08-11T18:10:23;4.80;;;1.80;;
14603;SDS011;7388;51.078;13.740;2022-08-11T18:13:09;2.80;;;1.50;;
14603;SDS011;7388;51.078;13.740;2022-08-11T18:15:54;2.10;;;0.90;;
14603;SDS011;7388;51.078;13.740;2022-08-11T18:18:38;2.30;;;1.20;;
14603;SDS011;7388;51.078;13.740;2022-08-11T18:21:23;3.03;;;1.87;;
14603;SDS011;7388;51.078;13.740;2022-08-11T18:24:14;5.50;;;1.77;;
14603;SDS011;7388;51.078;13.740;2022-08-11T18:27:01;3.10;;;1.50;;
14603;SDS011;7388;51.078;13.740;2022-08-11T18:29:48;2.60;;;1.60;;
14603;SDS011;7388;51.078;13.740;2022-08-11T18:32:35;3.70;;;2.30;;
14603;SDS011;7388;51.078;13.740;2022-08-11T18:35:21;3.10;;;1.60;;
14603;SDS011;7388;51.078;13.740;2022-08-11T18:38:08;2.57;;;1.40;;
14603;SDS011;7388;51.078;13.740;2022-08-11T18:40:55;3.33;;;1.50;;
14603;SDS011;7388;51.078;13.740;2022-08-11T18:43:42;2.90;;;1.30;;
14603;SDS011;7388;51.078;13.740;2022-08-11T18:46:34;2.50;;;1.40;;
14603;SDS011;7388;51.078;13.740;2022-08-11T18:49:25;6.20;;;1.93;;
14603;SDS011;7388;51.078;13.740;2022-08-11T18:52:12;3.00;;;1.70;;
14603;SDS011;7388;51.078;13.740;2022-08-11T18:54:59;2.70;;;1.30;;
14603;SDS011;7388;51.078;13.740;2022-08-11T18:57:46;2.50;;;1.60;;
14603;SDS011;7388;51.078;13.740;2022-08-11T19:00:33;2.30;;;1.40;;
14603;SDS011;7388;51.078;13.740;2022-08-11T19:03:19;3.53;;;1.80;;
14603;SDS011;7388;51.078;13.740;2022-08-11T19:06:05;2.10;;;1.50;;
14603;SDS011;7388;51.078;13.740;2022-08-11T19:08:52;4.30;;;1.90;;
14603;SDS011;7388;51.078;13.740;2022-08-11T19:11:40;4.20;;;2.00;;
14603;SDS011;7388;51.078;13.740;2022-08-11T19:14:25;5.20;;;2.00;;
14603;SDS011;7388;51.078;13.740;2022-08-11T19:17:12;3.60;;;1.60;;
14603;SDS011;7388;51.078;13.740;2022-08-11T19:19:58;3.50;;;1.97;;
14603;SDS011;7388;51.078;13.740;2022-08-11T19:22:46;3.83;;;2.00;;
14603;SDS011;7388;51.078;13.740;2022-08-11T19:25:31;4.50;;;2.00;;
14603;SDS011;7388;51.078;13.740;2022-08-11T19:28:17;3.33;;;1.80;;
14603;SDS011;7388;51.078;13.740;2022-08-11T19:31:04;4.47;;;2.63;;
14603;SDS011;7388;51.078;13.740;2022-08-11T19:33:51;4.27;;;1.83;;
14603;SDS011;7388;51.078;13.740;2022-08-11T19:36:37;5.57;;;2.50;;
14603;SDS011;7388;51.078;13.740;2022-08-11T19:39:22;6.73;;;2.53;;